Kirriemuir, United Kingdom
Current Conditions -  °F | °C
As of 11:20 AM on Thursday 27 Nov 2014 (Local Time) from EGPN Reporting Station
Light Rain Light Rain  
Wind Chill: 44°   Ceiling: 3000
Heat Index: 46°   Visibility: 3mi
Dew Point: 46°   Wind: 6mph
Humidity: 100%   Direction: 60°ENE
Pressure: 29.62"   Gusts: NA
Location:  56.67°N, 3°W
Report Text: EGPN 271120Z 06005KT 020V080 5000 -RA SCT009 SCT020 BKN030 08/08 Q1003 RERA
Loading
Personal Weather Stations






























Interactive Weather Map New forecast layout! Learn more

10-Day Weather Forecast

Advertisements
Track Severe Weather on mobile